Nashville, Tennessee
Traffic Map
Current Weather Conditions
Nashville, Tennessee
Overcast
Overcast
20°
Feels Like: 20°
Wind Chill: 20° Ceiling: 3800
Heat Index: 20° Visibility: 10mi
Dew Point: 13° Wind: 8mph
Humidity: 65% Direction: 170° (S)
Pressure: 29.84in Gusts: 16mph
Raw Report DataKBNA 222153Z 17007G14KT 10SM BKN038 OVC045 20/13 A2984 RMK AO2 SLP102 T02000133
Traffic Incident Summary
Active as of:
Severity:
Category:
InformationThere was an issue retrieving the traffic information for this location. Please try a different location or try again shortly.
Advertisements
Track Severe Weather on mobile